createdAt,value
2022-08-17T00:00:43.173Z,21.80
2022-08-17T00:03:49.127Z,21.60
2022-08-17T00:07:09.419Z,21.40
2022-08-17T00:10:20.011Z,21.70
2022-08-17T00:13:49.616Z,22.20
2022-08-17T00:17:02.904Z,22.20
2022-08-17T00:20:23.376Z,21.70
2022-08-17T00:23:52.392Z,21.60
2022-08-17T00:31:18.074Z,21.10
2022-08-17T00:34:37.139Z,21.00
2022-08-17T00:40:45.868Z,20.90
2022-08-17T00:44:05.633Z,21.10
2022-08-17T00:47:29.305Z,21.20
2022-08-17T00:50:21.568Z,21.10
2022-08-17T00:52:55.136Z,21.10
2022-08-17T00:55:27.459Z,21.30
2022-08-17T00:58:30.390Z,21.40
2022-08-17T01:01:08.716Z,21.40
2022-08-17T01:03:40.467Z,21.10
2022-08-17T01:06:10.223Z,21.00
2022-08-17T01:08:41.105Z,20.80
2022-08-17T01:11:09.755Z,20.80
2022-08-17T01:13:41.799Z,20.70
2022-08-17T01:16:17.278Z,20.70
2022-08-17T01:18:56.355Z,20.60
2022-08-17T01:21:32.914Z,20.70
2022-08-17T01:24:02.845Z,20.80
2022-08-17T01:26:34.036Z,20.60
2022-08-17T01:29:02.741Z,20.50
2022-08-17T01:31:35.621Z,20.40
2022-08-17T01:34:08.647Z,20.20
2022-08-17T01:36:37.862Z,20.50
2022-08-17T01:39:10.884Z,20.80
2022-08-17T01:41:43.524Z,20.40
2022-08-17T01:44:15.443Z,20.50
2022-08-17T01:46:43.736Z,20.70
2022-08-17T01:49:13.519Z,20.60
2022-08-17T01:51:42.098Z,20.50
2022-08-17T01:54:16.022Z,20.50
2022-08-17T01:56:47.808Z,20.20
2022-08-17T01:59:16.710Z,20.10
2022-08-17T02:01:45.400Z,19.90
2022-08-17T02:04:14.684Z,20.00
2022-08-17T02:06:53.553Z,20.10
2022-08-17T02:09:25.653Z,20.20
2022-08-17T02:11:56.340Z,20.30
2022-08-17T02:14:25.821Z,20.40
2022-08-17T02:16:56.153Z,20.40
2022-08-17T02:19:24.422Z,20.30
2022-08-17T02:21:56.543Z,20.30
2022-08-17T02:24:59.360Z,20.20
2022-08-17T02:27:18.855Z,20.30
2022-08-17T02:29:47.058Z,20.20
2022-08-17T02:32:27.738Z,19.90
2022-08-17T02:34:57.051Z,19.90
2022-08-17T02:37:25.641Z,20.20
2022-08-17T02:39:57.075Z,20.50
2022-08-17T02:42:29.207Z,20.50
2022-08-17T02:45:00.611Z,20.70
2022-08-17T02:47:28.969Z,20.90
2022-08-17T02:49:57.372Z,21.10
2022-08-17T02:52:43.739Z,21.40
2022-08-17T02:55:16.935Z,21.30
2022-08-17T02:57:45.647Z,21.20
2022-08-17T03:00:17.733Z,21.20
2022-08-17T03:02:46.616Z,21.10
2022-08-17T03:05:17.164Z,20.90
2022-08-17T03:07:45.438Z,20.90
2022-08-17T03:10:15.566Z,20.90
2022-08-17T03:12:45.207Z,20.90
2022-08-17T03:15:15.444Z,20.70
2022-08-17T03:17:44.077Z,20.50
2022-08-17T03:20:14.058Z,20.50
2022-08-17T03:22:48.040Z,20.80
2022-08-17T03:25:26.242Z,20.50
2022-08-17T03:27:55.015Z,20.00
2022-08-17T03:30:23.696Z,19.70
2022-08-17T03:32:54.633Z,19.60
2022-08-17T03:35:25.246Z,19.20
2022-08-17T03:38:01.096Z,19.30
2022-08-17T03:40:39.902Z,19.60
2022-08-17T03:43:21.807Z,19.80
2022-08-17T03:46:29.009Z,19.90
2022-08-17T03:49:13.852Z,20.10
2022-08-17T03:51:59.162Z,20.10
2022-08-17T03:54:44.923Z,20.30
2022-08-17T03:57:14.710Z,20.30
2022-08-17T03:59:44.908Z,20.40
2022-08-17T04:02:18.168Z,20.50
2022-08-17T04:04:46.253Z,20.50
2022-08-17T04:07:14.393Z,20.40
2022-08-17T04:09:42.838Z,20.50
2022-08-17T04:12:10.926Z,20.60
2022-08-17T04:14:53.381Z,20.70
2022-08-17T04:17:24.878Z,20.80
2022-08-17T04:19:53.810Z,21.00
2022-08-17T04:22:30.461Z,21.10
2022-08-17T04:25:03.944Z,21.30
2022-08-17T04:27:32.321Z,21.30
2022-08-17T04:30:01.908Z,21.40
2022-08-17T04:33:04.149Z,21.40
2022-08-17T04:35:23.374Z,21.40
2022-08-17T04:37:51.875Z,21.30
2022-08-17T04:40:39.380Z,21.20
2022-08-17T04:43:11.129Z,21.20
2022-08-17T04:45:51.262Z,21.20
2022-08-17T04:48:34.785Z,21.40
2022-08-17T04:51:06.208Z,21.40
2022-08-17T04:53:34.410Z,21.30
2022-08-17T04:56:02.689Z,21.40
2022-08-17T04:58:30.803Z,21.50
2022-08-17T05:01:00.531Z,21.50
2022-08-17T05:03:29.147Z,21.50
2022-08-17T05:05:57.273Z,21.50
2022-08-17T05:08:25.494Z,21.50
2022-08-17T05:10:53.889Z,21.50
2022-08-17T05:13:26.807Z,21.60
2022-08-17T05:15:57.757Z,21.60
2022-08-17T05:18:28.522Z,21.70
2022-08-17T05:20:56.828Z,21.90
2022-08-17T05:23:26.680Z,22.00
2022-08-17T05:26:03.460Z,22.10
2022-08-17T05:28:34.649Z,22.20
2022-08-17T05:31:04.471Z,22.30
2022-08-17T05:33:35.438Z,22.40
2022-08-17T05:36:06.258Z,22.60
2022-08-17T05:38:34.818Z,22.70
2022-08-17T05:41:05.388Z,22.80
2022-08-17T05:43:36.367Z,22.90
2022-08-17T05:46:08.786Z,23.00
2022-08-17T05:48:41.231Z,23.10
2022-08-17T05:51:38.274Z,23.20
2022-08-17T05:54:23.075Z,23.30
2022-08-17T05:57:07.481Z,23.30
2022-08-17T05:59:45.216Z,23.40
2022-08-17T06:02:28.287Z,23.50
2022-08-17T06:05:11.842Z,23.30
2022-08-17T06:07:49.388Z,23.30
2022-08-17T06:10:27.425Z,23.30
2022-08-17T06:13:06.037Z,23.30
2022-08-17T06:15:44.182Z,23.40
2022-08-17T06:18:18.531Z,23.50
2022-08-17T06:20:55.665Z,23.60
2022-08-17T06:23:31.219Z,23.60
2022-08-17T06:26:04.671Z,23.60
2022-08-17T06:28:41.743Z,23.50
2022-08-17T06:31:18.050Z,23.50
2022-08-17T06:33:47.550Z,23.70
2022-08-17T06:36:34.018Z,23.70
2022-08-17T06:39:17.690Z,23.90
2022-08-17T06:41:54.658Z,24.10
2022-08-17T06:44:50.002Z,24.20
2022-08-17T06:47:28.537Z,24.20
2022-08-17T06:50:16.716Z,24.20
2022-08-17T06:52:58.775Z,24.20
2022-08-17T06:55:35.820Z,24.30
2022-08-17T06:58:15.907Z,24.40
2022-08-17T07:00:50.035Z,24.40
2022-08-17T07:03:37.721Z,24.40
2022-08-17T07:06:12.107Z,24.60
2022-08-17T07:08:50.545Z,24.80
2022-08-17T07:11:24.459Z,25.00
2022-08-17T07:14:03.719Z,25.10
2022-08-17T07:16:38.389Z,25.20
2022-08-17T07:19:07.580Z,25.30
2022-08-17T07:21:51.076Z,25.50
2022-08-17T07:24:35.503Z,25.60
2022-08-17T07:27:06.642Z,25.60
2022-08-17T07:29:44.033Z,25.70
2022-08-17T07:32:18.451Z,25.80
2022-08-17T07:35:10.909Z,25.70
2022-08-17T07:37:40.872Z,25.90
2022-08-17T07:40:23.197Z,25.90
2022-08-17T07:43:19.932Z,25.80
2022-08-17T09:12:37.731Z,25.70
2022-08-17T09:47:19.545Z,25.50
2022-08-17T09:51:06.673Z,25.70
2022-08-17T09:55:24.004Z,26.00
2022-08-17T09:59:26.553Z,26.10
2022-08-17T10:41:23.287Z,24.10
2022-08-17T10:53:06.013Z,24.50
2022-08-17T11:37:54.309Z,24.50
2022-08-17T11:41:34.419Z,24.90
2022-08-17T11:44:59.804Z,24.90
2022-08-17T12:57:46.783Z,27.50
2022-08-17T13:00:32.438Z,27.60
2022-08-17T13:03:27.863Z,27.70
2022-08-17T13:06:35.012Z,27.90
2022-08-17T13:33:58.738Z,29.20
2022-08-17T13:36:43.897Z,29.40
2022-08-17T13:39:35.865Z,29.30
2022-08-17T13:42:55.981Z,28.90
2022-08-17T13:45:55.660Z,29.00
2022-08-17T13:48:35.673Z,29.00
2022-08-17T13:51:31.678Z,29.20
2022-08-17T13:54:31.950Z,29.40
2022-08-17T13:57:06.556Z,29.60
2022-08-17T13:59:57.530Z,29.60
2022-08-17T14:02:41.325Z,29.80
2022-08-17T14:05:16.835Z,29.90
2022-08-17T14:07:49.642Z,30.00
2022-08-17T14:10:37.133Z,30.00
2022-08-17T14:13:18.204Z,30.10
2022-08-17T14:15:54.757Z,30.10
2022-08-17T14:18:55.757Z,30.20
2022-08-17T14:24:38.995Z,30.30
2022-08-17T14:27:21.650Z,30.50
2022-08-17T14:30:02.946Z,30.50
2022-08-17T14:32:44.975Z,30.60
2022-08-17T14:35:21.286Z,30.60
2022-08-17T14:38:01.397Z,30.60
2022-08-17T14:40:34.967Z,30.60
2022-08-17T14:43:13.540Z,30.60
2022-08-17T14:45:56.720Z,30.50
2022-08-17T14:48:28.155Z,30.60
2022-08-17T14:50:57.968Z,30.70
2022-08-17T14:59:15.467Z,30.40
2022-08-17T15:23:25.405Z,30.70
2022-08-17T15:25:57.916Z,30.50
2022-08-17T15:28:36.460Z,30.50
2022-08-17T15:31:16.304Z,30.50
2022-08-17T15:34:08.025Z,30.60
2022-08-17T15:36:49.150Z,30.70
2022-08-17T15:39:51.734Z,30.90
2022-08-17T16:29:59.126Z,30.80
2022-08-17T16:32:54.158Z,30.80
2022-08-17T16:35:29.295Z,30.70
2022-08-17T16:38:11.409Z,30.80
2022-08-17T16:44:28.671Z,30.70
2022-08-17T16:47:25.698Z,30.70
2022-08-17T16:51:02.922Z,30.70
2022-08-17T16:53:44.922Z,30.60
2022-08-17T17:04:35.002Z,30.60
2022-08-17T17:08:47.337Z,30.50
2022-08-17T17:11:12.307Z,30.40
2022-08-17T17:14:32.495Z,30.30
2022-08-17T17:18:35.092Z,30.20
2022-08-17T17:50:11.686Z,29.90
2022-08-17T18:41:30.361Z,29.30
2022-08-17T18:47:48.145Z,29.30
2022-08-17T18:51:15.101Z,29.10
2022-08-17T19:16:49.317Z,28.60
2022-08-17T19:19:35.280Z,28.60
2022-08-17T19:22:14.360Z,28.10
2022-08-17T19:29:27.635Z,26.80
2022-08-17T19:33:30.868Z,27.00
2022-08-17T19:41:51.150Z,26.70
2022-08-17T19:46:31.676Z,26.20
2022-08-17T20:07:45.596Z,25.20
2022-08-17T20:15:02.233Z,25.10
2022-08-17T20:29:57.317Z,24.80
2022-08-17T20:33:17.113Z,24.70
2022-08-17T20:40:47.584Z,24.30
2022-08-17T21:49:25.848Z,23.80
2022-08-17T21:53:45.645Z,23.90
2022-08-17T23:09:38.176Z,23.50
2022-08-17T23:17:53.389Z,23.60
